Time;durP1;ratioP1;P1;durP2;ratioP2;P2;SDS_P1;SDS_P2;PMS_P1;PMS_P2;Temp;Humidity;BMP_temperature;BMP_pressure;BME280_temperature;BME280_humidity;BME280_pressure;Samples;Min_cycle;Max_cycle;Signal;HPM_P1;HPM_P2
2022/12/10 00:00:30;;;;;;;0.60;0.55;;;14.50;71.00;;;;;;4211680;28;20063;-61
2022/12/10 00:03:11;;;;;;;0.10;0.10;;;14.60;70.00;;;;;;4211590;28;20059;-62
2022/12/10 00:05:52;;;;;;;0.00;0.00;;;14.60;69.70;;;;;;4209758;28;20305;-61
2022/12/10 00:08:35;;;;;;;0.63;0.63;;;14.60;69.70;;;;;;4211457;28;20051;-61
2022/12/10 00:11:18;;;;;;;0.00;0.00;;;14.60;69.70;;;;;;4211169;28;20094;-61
2022/12/10 00:14:00;;;;;;;0.08;0.08;;;14.50;69.70;;;;;;4211472;28;20441;-61
2022/12/10 00:16:41;;;;;;;0.00;0.00;;;14.50;69.80;;;;;;4211127;28;20112;-61
2022/12/10 00:19:22;;;;;;;0.63;0.63;;;14.50;70.00;;;;;;4211069;28;20494;-62
2022/12/10 00:22:03;;;;;;;0.40;0.40;;;14.40;70.10;;;;;;4211518;28;20150;-62
2022/12/10 00:24:46;;;;;;;0.40;0.40;;;14.40;70.30;;;;;;4211055;28;20073;-61
2022/12/10 00:27:27;;;;;;;0.10;0.10;;;14.50;70.30;;;;;;4210696;28;20510;-60
2022/12/10 00:30:09;;;;;;;;;;;14.60;69.80;;;;;;4194810;28;20055;-61
2022/12/10 00:32:51;;;;;;;0.57;0.57;;;14.70;69.40;;;;;;4192937;28;19958;-61
2022/12/10 00:35:35;;;;;;;0.68;0.68;;;14.70;69.10;;;;;;4194483;28;20050;-61
2022/12/10 00:38:16;;;;;;;0.30;0.30;;;14.70;68.90;;;;;;4181568;28;20556;-61
2022/12/10 00:40:58;;;;;;;0.00;0.00;;;14.70;68.90;;;;;;4209218;28;20055;-61
2022/12/10 00:43:39;;;;;;;0.10;0.10;;;14.70;69.00;;;;;;4185943;28;20395;-61
2022/12/10 00:46:20;;;;;;;;;;;14.70;69.10;;;;;;4210240;28;20391;-61
2022/12/10 00:49:01;;;;;;;0.13;0.13;;;14.70;69.10;;;;;;4209988;28;20016;-61
2022/12/10 00:51:42;;;;;;;0.00;0.00;;;14.80;68.70;;;;;;4209606;28;20599;-60
2022/12/10 00:54:25;;;;;;;0.00;0.00;;;14.90;68.40;;;;;;4209437;28;20121;-61
2022/12/10 00:57:07;;;;;;;0.10;0.10;;;14.90;68.10;;;;;;4210513;28;20769;-61
2022/12/10 00:59:47;;;;;;;1.65;0.95;;;15.00;67.80;;;;;;4208979;28;20063;-62
2022/12/10 01:02:28;;;;;;;0.10;0.10;;;15.10;67.50;;;;;;4210586;28;20133;-61
2022/12/10 01:05:09;;;;;;;0.00;0.00;;;15.10;67.30;;;;;;4209442;28;20055;-61
2022/12/10 01:07:52;;;;;;;0.38;0.38;;;15.10;67.30;;;;;;4209641;28;20051;-62
2022/12/10 01:10:32;;;;;;;0.10;0.10;;;15.00;67.30;;;;;;4210566;28;20426;-61
2022/12/10 01:13:15;;;;;;;0.00;0.00;;;15.00;67.60;;;;;;4210557;28;20059;-61
2022/12/10 01:15:56;;;;;;;1.00;1.00;;;14.90;67.80;;;;;;4210030;28;20185;-63
2022/12/10 01:18:37;;;;;;;0.00;0.00;;;15.00;67.80;;;;;;4193834;28;20186;-61
2022/12/10 01:21:20;;;;;;;0.03;0.03;;;15.00;68.60;;;;;;4192618;28;20054;-62
2022/12/10 01:24:01;;;;;;;0.25;0.25;;;15.00;67.50;;;;;;4192482;28;20415;-61
2022/12/10 01:26:42;;;;;;;0.85;0.85;;;15.00;67.50;;;;;;4192460;28;20056;-52
2022/12/10 01:29:24;;;;;;;0.07;0.07;;;15.00;67.50;;;;;;4195541;28;20054;-52
2022/12/10 01:32:05;;;;;;;0.52;0.52;;;15.10;67.20;;;;;;4210038;28;20055;-49
2022/12/10 01:34:46;;;;;;;0.00;0.00;;;15.10;67.00;;;;;;4193508;28;20056;-52
2022/12/10 01:37:27;;;;;;;0.10;0.10;;;15.20;66.80;;;;;;4193276;28;20130;-51
2022/12/10 01:40:09;;;;;;;0.47;0.47;;;15.20;66.80;;;;;;4193368;28;20051;-51
2022/12/10 01:42:50;;;;;;;0.45;0.45;;;15.20;66.60;;;;;;4193163;28;20182;-51
2022/12/10 01:45:32;;;;;;;0.08;0.08;;;15.30;66.40;;;;;;4192814;28;20058;-53
2022/12/10 01:48:13;;;;;;;0.90;0.90;;;15.30;66.10;;;;;;4192119;28;20059;-54
2022/12/10 01:50:54;;;;;;;0.00;0.00;;;15.40;66.00;;;;;;4208993;28;20047;-52
2022/12/10 01:53:35;;;;;;;0.10;0.10;;;15.50;65.80;;;;;;4194890;28;20822;-53
2022/12/10 01:56:18;;;;;;;0.68;0.65;;;15.50;65.40;;;;;;4192060;28;20047;-52
2022/12/10 01:58:59;;;;;;;0.10;0.10;;;15.60;65.10;;;;;;4191892;28;20059;-51
2022/12/10 02:01:48;;;;;;;0.45;0.45;;;15.70;64.80;;;;;;4206134;28;20177;-49
2022/12/10 02:04:34;;;;;;;0.00;0.00;;;15.70;64.70;;;;;;4192968;28;20055;-54
2022/12/10 02:07:25;;;;;;;2.67;2.47;;;15.70;64.90;;;;;;4206566;28;20055;-61
2022/12/10 02:10:14;;;;;;;0.20;0.20;;;15.60;64.90;;;;;;4208087;28;22202;-62
2022/12/10 02:13:00;;;;;;;0.00;0.00;;;15.70;64.90;;;;;;4208016;28;20059;-61
2022/12/10 02:15:45;;;;;;;0.00;0.00;;;15.70;64.70;;;;;;4208212;28;20051;-61
2022/12/10 02:18:32;;;;;;;4.13;3.03;;;15.80;64.60;;;;;;4208227;28;20048;-62
2022/12/10 02:21:18;;;;;;;0.25;0.25;;;15.80;64.60;;;;;;4209195;28;20047;-61
2022/12/10 02:24:03;;;;;;;0.00;0.00;;;15.70;64.60;;;;;;4207407;28;20170;-62
2022/12/10 02:26:52;;;;;;;0.10;0.10;;;15.70;64.70;;;;;;4208106;28;20050;-62
2022/12/10 02:29:35;;;;;;;0.00;0.00;;;15.60;65.00;;;;;;4207998;28;20170;-61
2022/12/10 02:32:19;;;;;;;0.00;0.00;;;15.50;65.30;;;;;;4202653;28;20102;-62
2022/12/10 02:35:04;;;;;;;0.10;0.10;;;15.50;65.40;;;;;;4191371;28;20117;-61
2022/12/10 02:37:51;;;;;;;0.93;0.93;;;15.50;65.40;;;;;;4191575;28;20082;-62
2022/12/10 02:40:35;;;;;;;0.90;0.55;;;15.50;65.40;;;;;;4200353;28;20051;-62
2022/12/10 02:43:21;;;;;;;0.10;0.10;;;15.40;65.50;;;;;;4208110;28;20145;-62
2022/12/10 02:46:05;;;;;;;0.00;0.00;;;15.40;65.70;;;;;;4207891;28;20117;-62
2022/12/10 02:48:48;;;;;;;0.22;0.22;;;15.30;66.00;;;;;;4191532;28;20048;-61
2022/12/10 02:51:29;;;;;;;0.00;0.00;;;15.20;66.30;;;;;;4179415;28;20526;-62
2022/12/10 02:54:37;;;;;;;2.72;1.60;;;15.10;66.50;;;;;;4192098;28;20051;-62
2022/12/10 02:57:34;;;;;;;0.00;0.00;;;15.00;66.70;;;;;;4193787;28;20498;-62
2022/12/10 03:00:18;;;;;;;0.00;0.00;;;15.00;66.90;;;;;;4206219;28;20379;-62
2022/12/10 03:03:18;;;;;;;1.15;1.10;;;14.90;67.10;;;;;;4211867;28;20055;-61
2022/12/10 03:06:06;;;;;;;0.00;0.00;;;15.00;67.20;;;;;;4211898;28;20043;-61
2022/12/10 03:08:51;;;;;;;0.20;0.20;;;15.00;66.90;;;;;;4212207;28;20182;-61
2022/12/10 03:11:32;;;;;;;0.20;0.20;;;15.00;66.80;;;;;;4211589;28;20055;-61
2022/12/10 03:14:16;;;;;;;0.00;0.00;;;15.00;66.80;;;;;;4211841;28;20120;-61
2022/12/10 03:16:59;;;;;;;1.85;1.23;;;15.00;66.90;;;;;;4211568;28;20055;-61
2022/12/10 03:19:47;;;;;;;0.88;0.88;;;14.90;67.00;;;;;;4211698;28;20406;-61
2022/12/10 03:22:29;;;;;;;0.13;0.10;;;14.90;67.30;;;;;;4212016;28;20051;-62
2022/12/10 03:25:13;;;;;;;0.63;0.63;;;14.80;67.40;;;;;;4212256;28;20050;-62
2022/12/10 03:27:57;;;;;;;0.08;0.08;;;14.80;67.50;;;;;;4211130;28;20493;-61
2022/12/10 03:30:40;;;;;;;0.08;0.08;;;14.70;67.60;;;;;;4210376;28;20055;-61
2022/12/10 03:33:21;;;;;;;0.20;0.20;;;14.70;67.80;;;;;;4211369;28;20144;-61
2022/12/10 03:36:04;;;;;;;0.75;0.75;;;14.80;67.80;;;;;;4211748;28;20128;-61
2022/12/10 03:38:45;;;;;;;0.00;0.00;;;14.90;67.40;;;;;;4210979;28;20124;-61
2022/12/10 03:41:26;;;;;;;0.98;0.98;;;15.00;66.90;;;;;;4211397;28;20071;-62
2022/12/10 03:44:07;;;;;;;0.15;0.15;;;15.10;66.30;;;;;;4211373;28;20190;-61
2022/12/10 03:46:48;;;;;;;0.10;0.10;;;15.30;65.80;;;;;;4211318;28;20093;-62
2022/12/10 03:49:29;;;;;;;1.45;0.70;;;15.50;65.20;;;;;;4211371;28;20054;-62
2022/12/10 03:52:11;;;;;;;1.33;1.23;;;15.60;64.70;;;;;;4194716;28;20047;-61
2022/12/10 03:54:52;;;;;;;0.30;0.30;;;15.70;64.10;;;;;;4194671;28;20146;-62
2022/12/10 03:57:34;;;;;;;0.20;0.20;;;15.80;63.80;;;;;;4195114;28;20855;-61
2022/12/10 04:00:15;;;;;;;0.10;0.10;;;15.90;63.50;;;;;;4211530;28;20051;-61
2022/12/10 04:02:56;;;;;;;;;;;16.00;63.00;;;;;;4211541;28;20499;-61
2022/12/10 04:05:38;;;;;;;0.88;0.45;;;16.10;63.60;;;;;;4206433;28;19931;-61
2022/12/10 04:08:20;;;;;;;;;;;16.10;62.50;;;;;;4211336;28;20054;-62
2022/12/10 04:11:05;;;;;;;0.63;0.63;;;16.10;62.60;;;;;;4211398;28;20065;-62
2022/12/10 04:16:59;;;;;;;0.55;0.55;;;16.10;62.50;;;;;;4160246;28;20534;-61
2022/12/10 04:19:40;;;;;;;;;;;16.00;62.60;;;;;;4176120;28;20530;-61
2022/12/10 04:28:19;;;;;;;0.32;0.32;;;16.00;62.60;;;;;;4210498;28;20411;-62
2022/12/10 04:30:59;;;;;;;0.15;0.15;;;15.90;62.70;;;;;;4210392;28;20055;-62
2022/12/10 04:33:41;;;;;;;0.65;0.65;;;15.90;63.00;;;;;;4210353;28;20055;-61
2022/12/10 04:36:21;;;;;;;0.90;0.90;;;15.80;63.20;;;;;;4210650;28;20121;-62
2022/12/10 04:39:03;;;;;;;0.35;0.35;;;15.80;63.20;;;;;;4210841;28;20047;-61
2022/12/10 04:41:47;;;;;;;0.20;0.20;;;15.80;63.10;;;;;;4209856;28;20489;-61
2022/12/10 04:44:28;;;;;;;0.00;0.00;;;15.90;63.00;;;;;;4195110;28;20051;-62
2022/12/10 04:47:10;;;;;;;1.88;0.32;;;15.90;62.80;;;;;;4210293;28;20494;-61
2022/12/10 04:49:52;;;;;;;0.00;0.00;;;15.90;62.80;;;;;;4210552;28;20059;-61
2022/12/10 04:52:33;;;;;;;0.60;0.60;;;15.90;62.80;;;;;;4210575;28;20055;-61
2022/12/10 04:55:16;;;;;;;0.28;0.28;;;15.80;63.00;;;;;;4210800;28;20548;-61
2022/12/10 04:57:59;;;;;;;0.00;0.00;;;15.80;63.30;;;;;;4210129;28;20059;-61
2022/12/10 05:00:39;;;;;;;0.85;0.85;;;15.70;63.30;;;;;;4210640;28;20055;-49
2022/12/10 05:03:20;;;;;;;0.00;0.00;;;15.70;63.40;;;;;;4210604;28;20062;-51
2022/12/10 05:06:02;;;;;;;0.10;0.10;;;15.70;63.40;;;;;;4209902;28;20063;-51
2022/12/10 05:08:43;;;;;;;0.80;0.77;;;15.60;63.60;;;;;;4210356;28;20120;-51
2022/12/10 05:11:27;;;;;;;0.35;0.35;;;15.60;63.90;;;;;;4210712;28;20047;-51
2022/12/10 05:14:11;;;;;;;5.57;0.95;;;15.60;63.90;;;;;;4210457;28;20125;-51
2022/12/10 05:16:52;;;;;;;1.35;0.65;;;15.70;63.70;;;;;;4210186;28;20063;-61
2022/12/10 05:19:33;;;;;;;2.03;1.45;;;15.80;63.40;;;;;;4209373;28;20055;-61
2022/12/10 05:25:12;;;;;;;0.10;0.10;;;15.90;62.70;;;;;;4210014;28;20177;-61
2022/12/10 05:27:53;;;;;;;2.65;1.75;;;15.90;62.50;;;;;;4210266;28;20092;-61
2022/12/10 05:30:37;;;;;;;0.10;0.10;;;16.00;62.30;;;;;;4209861;28;20121;-63
2022/12/10 05:33:17;;;;;;;0.22;0.17;;;16.10;62.10;;;;;;4196294;28;20526;-62
2022/12/10 05:36:00;;;;;;;0.57;0.57;;;16.10;62.00;;;;;;4210020;28;20058;-61
2022/12/10 05:38:41;;;;;;;0.65;0.65;;;16.00;61.90;;;;;;4209369;28;20059;-63
2022/12/10 05:41:24;;;;;;;0.85;0.75;;;16.00;62.10;;;;;;4191802;28;20505;-61
2022/12/10 05:44:07;;;;;;;0.00;0.00;;;16.00;62.00;;;;;;4193126;28;20131;-62
2022/12/10 05:46:49;;;;;;;0.35;0.35;;;16.10;61.90;;;;;;4209837;28;20395;-61
2022/12/10 05:49:30;;;;;;;0.88;0.88;;;16.10;61.70;;;;;;4209968;28;20923;-61
2022/12/10 05:52:11;;;;;;;1.30;1.27;;;16.10;61.60;;;;;;4210046;28;20407;-61
2022/12/10 05:54:52;;;;;;;0.08;0.08;;;16.10;61.50;;;;;;4209947;28;20510;-61
2022/12/10 05:57:33;;;;;;;0.65;0.65;;;16.10;61.50;;;;;;4209791;28;20089;-61
2022/12/10 06:00:14;;;;;;;1.08;1.00;;;16.10;61.70;;;;;;4207274;28;20055;-61
2022/12/10 06:02:56;;;;;;;;;;;16.10;61.70;;;;;;4209140;28;20110;-61
2022/12/10 06:05:38;;;;;;;0.73;0.68;;;16.10;61.60;;;;;;4209902;28;19996;-61
2022/12/10 06:08:20;;;;;;;3.92;1.75;;;16.10;61.70;;;;;;4209292;28;20130;-61
2022/12/10 06:11:02;;;;;;;0.43;0.43;;;16.00;61.70;;;;;;4209533;28;20813;-61
2022/12/10 06:13:42;;;;;;;0.15;0.15;;;16.00;61.90;;;;;;4201843;28;20059;-50
2022/12/10 06:16:25;;;;;;;2.60;0.98;;;15.90;62.10;;;;;;4209506;28;20177;-51
2022/12/10 06:19:07;;;;;;;0.40;0.40;;;15.80;62.80;;;;;;4209062;28;20125;-51
2022/12/10 06:21:48;;;;;;;0.20;0.20;;;15.80;63.10;;;;;;4209365;28;20624;-54
2022/12/10 06:24:30;;;;;;;0.85;0.85;;;15.80;63.00;;;;;;4209164;28;20047;-62
2022/12/10 06:27:10;;;;;;;1.48;0.73;;;15.80;63.00;;;;;;4209134;28;20505;-62
2022/12/10 06:29:51;;;;;;;2.10;1.35;;;15.70;63.20;;;;;;4209129;28;20117;-61
2022/12/10 06:32:32;;;;;;;0.15;0.15;;;15.70;63.20;;;;;;4209033;28;20054;-61
2022/12/10 06:35:15;;;;;;;0.17;0.17;;;15.50;63.30;;;;;;4208393;28;20559;-62
2022/12/10 06:37:55;;;;;;;0.35;0.35;;;15.50;63.80;;;;;;4194529;28;20102;-62
2022/12/10 06:40:40;;;;;;;1.38;1.27;;;15.40;64.00;;;;;;4209164;28;20063;-62
2022/12/10 06:43:20;;;;;;;0.65;0.65;;;15.30;64.20;;;;;;4209314;28;20066;-63
2022/12/10 06:46:06;;;;;;;0.80;0.80;;;15.20;64.40;;;;;;4209019;28;20051;-62
2022/12/10 06:48:47;;;;;;;0.00;0.00;;;15.20;64.80;;;;;;4208869;28;20403;-61
2022/12/10 06:51:30;;;;;;;0.25;0.25;;;15.10;65.00;;;;;;4208629;28;20058;-62
2022/12/10 06:54:11;;;;;;;0.45;0.45;;;15.20;64.90;;;;;;4208466;28;20054;-62
2022/12/10 06:56:51;;;;;;;0.15;0.15;;;15.30;65.60;;;;;;4209370;28;20051;-62
2022/12/10 06:59:33;;;;;;;0.28;0.28;;;15.30;64.60;;;;;;4209121;28;20047;-62
2022/12/10 07:02:14;;;;;;;0.05;0.05;;;15.40;64.20;;;;;;4208958;28;20093;-62
2022/12/10 07:04:56;;;;;;;0.00;0.00;;;15.50;63.90;;;;;;4208549;28;20055;-62
2022/12/10 07:07:38;;;;;;;0.38;0.38;;;15.60;63.60;;;;;;4208608;28;20078;-62
2022/12/10 07:10:19;;;;;;;0.10;0.10;;;15.60;63.40;;;;;;4208476;28;20055;-62
2022/12/10 07:13:00;;;;;;;0.00;0.00;;;15.60;63.10;;;;;;4208461;28;20157;-62
2022/12/10 07:15:42;;;;;;;0.30;0.30;;;15.80;63.70;;;;;;4207588;28;20518;-62
2022/12/10 07:18:22;;;;;;;0.60;0.60;;;15.90;62.40;;;;;;4208599;28;20169;-62
2022/12/10 07:21:14;;;;;;;2.50;2.15;;;15.90;62.10;;;;;;4208843;28;20063;-62
2022/12/10 07:23:58;;;;;;;1.63;1.45;;;16.00;61.90;;;;;;4192008;28;20101;-57
2022/12/10 07:26:43;;;;;;;0.10;0.10;;;16.10;61.30;;;;;;4192088;28;20064;-61
2022/12/10 07:29:23;;;;;;;1.30;0.32;;;16.10;60.90;;;;;;4192030;28;20337;-60
2022/12/10 07:32:04;;;;;;;0.00;0.00;;;16.10;61.00;;;;;;4205080;28;20054;-60
2022/12/10 07:34:45;;;;;;;0.00;0.00;;;16.20;60.80;;;;;;4208518;28;20085;-61
2022/12/10 07:37:26;;;;;;;2.15;1.98;;;16.20;60.60;;;;;;4199385;28;20055;-60
2022/12/10 07:40:10;;;;;;;1.25;1.25;;;16.20;60.60;;;;;;4208320;28;20047;-60
2022/12/10 07:42:51;;;;;;;0.00;0.00;;;16.20;60.70;;;;;;4209571;28;20051;-59
2022/12/10 07:45:33;;;;;;;0.30;0.30;;;16.10;60.70;;;;;;4211691;28;20121;-60
2022/12/10 07:48:14;;;;;;;0.80;0.80;;;16.10;61.00;;;;;;4210999;28;20503;-60
2022/12/10 07:50:57;;;;;;;2.55;1.08;;;16.00;62.00;;;;;;4211277;28;20380;-61
2022/12/10 07:53:39;;;;;;;2.83;2.08;;;16.00;61.10;;;;;;4211402;28;20460;-61
2022/12/10 07:56:22;;;;;;;2.80;1.55;;;16.00;61.10;;;;;;4211392;28;20813;-61
2022/12/10 07:59:03;;;;;;;0.20;0.20;;;16.00;61.10;;;;;;4195097;28;20540;-58
2022/12/10 08:01:44;;;;;;;0.15;0.15;;;15.90;61.20;;;;;;4193164;28;20067;-56
2022/12/10 08:04:28;;;;;;;1.48;1.48;;;16.00;61.10;;;;;;4211585;28;20532;-55
2022/12/10 08:07:09;;;;;;;11.48;4.68;;;16.00;61.10;;;;;;4211214;28;20059;-54
2022/12/10 08:09:50;;;;;;;1.75;0.63;;;15.90;61.00;;;;;;4211721;28;20536;-56
2022/12/10 08:12:32;;;;;;;0.20;0.20;;;15.90;61.10;;;;;;4211192;28;20067;-56
2022/12/10 08:15:13;;;;;;;0.17;0.17;;;15.90;61.00;;;;;;4210621;28;20058;-58
2022/12/10 08:17:54;;;;;;;0.63;0.57;;;16.00;61.10;;;;;;4211319;28;20552;-58
2022/12/10 08:20:36;;;;;;;0.30;0.30;;;16.00;60.90;;;;;;4210870;28;20047;-57
2022/12/10 08:23:17;;;;;;;0.30;0.30;;;16.00;61.70;;;;;;4209102;28;20140;-56
2022/12/10 08:25:59;;;;;;;1.60;1.52;;;16.10;60.60;;;;;;4211219;28;20395;-57
2022/12/10 08:28:42;;;;;;;0.93;0.63;;;16.10;60.40;;;;;;4210617;28;20039;-57
2022/12/10 08:31:24;;;;;;;1.48;1.23;;;16.10;60.20;;;;;;4210488;28;20059;-57
2022/12/10 08:34:06;;;;;;;0.75;0.75;;;16.20;60.00;;;;;;4211112;28;20520;-55
2022/12/10 08:36:47;;;;;;;0.13;0.13;;;16.20;59.90;;;;;;4211043;28;20062;-56
2022/12/10 08:39:28;;;;;;;0.22;0.22;;;16.20;59.80;;;;;;4210908;28;20054;-56
2022/12/10 08:42:09;;;;;;;0.75;0.75;;;16.20;59.80;;;;;;4210430;28;20047;-57
2022/12/10 08:44:51;;;;;;;0.95;0.95;;;16.20;59.70;;;;;;4210358;28;20505;-56
2022/12/10 08:47:32;;;;;;;0.13;0.13;;;16.20;59.60;;;;;;4210575;28;20062;-53
2022/12/10 08:50:13;;;;;;;0.45;0.45;;;16.30;59.60;;;;;;4210387;28;20050;-54
2022/12/10 08:52:54;;;;;;;0.65;0.65;;;16.20;59.50;;;;;;4208949;28;20514;-53
2022/12/10 08:55:38;;;;;;;2.38;2.28;;;16.30;59.50;;;;;;4209164;28;20055;-57
2022/12/10 08:58:23;;;;;;;0.05;0.05;;;16.20;59.50;;;;;;4210109;28;20055;-56
2022/12/10 09:01:08;;;;;;;0.57;0.57;;;16.20;59.50;;;;;;4210018;28;20059;-52
2022/12/10 09:03:49;;;;;;;2.30;0.75;;;16.10;59.80;;;;;;4193381;28;20094;-52
2022/12/10 09:06:30;;;;;;;0.98;0.98;;;16.00;60.60;;;;;;4193327;28;20047;-58
2022/12/10 09:09:11;;;;;;;0.85;0.85;;;15.90;61.40;;;;;;4193545;28;20062;-56
2022/12/10 09:11:52;;;;;;;1.30;1.30;;;15.80;62.00;;;;;;4206790;28;20051;-57
2022/12/10 09:14:33;;;;;;;0.27;0.27;;;15.90;62.00;;;;;;4210180;28;20406;-55
2022/12/10 09:17:16;;;;;;;32.70;2.90;;;16.00;61.90;;;;;;4209968;28;20800;-56
2022/12/10 09:19:57;;;;;;;17.75;5.57;;;16.00;62.00;;;;;;4209694;28;20046;-54
2022/12/10 09:22:38;;;;;;;0.85;0.70;;;16.00;62.20;;;;;;4209380;28;20065;-54
2022/12/10 09:25:21;;;;;;;3.88;3.10;;;16.00;62.40;;;;;;4209600;28;20395;-54
2022/12/10 09:28:02;;;;;;;0.38;0.22;;;15.90;62.50;;;;;;4210062;28;20442;-55
2022/12/10 09:30:43;;;;;;;0.10;0.10;;;15.80;62.70;;;;;;4209599;28;20399;-55
2022/12/10 09:33:25;;;;;;;0.30;0.30;;;15.70;63.10;;;;;;4210060;28;20078;-56
2022/12/10 09:36:07;;;;;;;0.30;0.30;;;15.60;63.40;;;;;;4209913;28;20508;-53
2022/12/10 09:38:51;;;;;;;10.10;1.55;;;15.50;63.80;;;;;;4209510;28;20055;-53
2022/12/10 09:41:52;;;;;;;0.25;0.25;;;15.50;64.10;;;;;;4210030;28;20447;-51
2022/12/10 09:44:43;;;;;;;0.00;0.00;;;15.50;64.00;;;;;;4209417;28;20198;-55
2022/12/10 09:47:31;;;;;;;0.10;0.10;;;15.50;63.70;;;;;;4209880;28;20511;-54
2022/12/10 09:50:23;;;;;;;0.70;0.70;;;15.60;63.70;;;;;;4209350;28;20055;-52
2022/12/10 09:53:08;;;;;;;4.32;2.17;;;15.60;63.40;;;;;;4209544;28;20083;-55
2022/12/10 09:55:50;;;;;;;0.00;0.00;;;15.70;63.10;;;;;;4209447;28;20043;-52
2022/12/10 09:58:31;;;;;;;0.00;0.00;;;15.90;62.70;;;;;;4210036;28;20063;-63
2022/12/10 10:01:15;;;;;;;0.00;0.00;;;16.00;62.20;;;;;;4209361;28;20078;-63
2022/12/10 10:03:56;;;;;;;2.75;1.48;;;16.10;61.80;;;;;;4209160;28;20416;-50
2022/12/10 10:06:39;;;;;;;0.88;0.88;;;16.20;61.20;;;;;;4209301;28;20062;-52
2022/12/10 10:09:20;;;;;;;0.28;0.28;;;16.30;61.30;;;;;;4209801;28;20059;-64
2022/12/10 10:12:02;;;;;;;1.15;1.08;;;16.30;61.10;;;;;;4208477;28;20101;-56
2022/12/10 10:14:48;;;;;;;10.02;2.47;;;16.40;60.80;;;;;;4209003;28;20108;-52
2022/12/10 10:17:35;;;;;;;1.92;1.13;;;16.60;60.20;;;;;;4209017;28;20178;-56
2022/12/10 10:20:16;;;;;;;0.93;0.90;;;16.80;59.70;;;;;;4209061;28;20563;-54
2022/12/10 10:23:01;;;;;;;2.05;1.27;;;17.00;59.30;;;;;;4209365;28;20394;-55
2022/12/10 10:25:42;;;;;;;1.05;1.05;;;17.10;58.80;;;;;;4204198;28;20589;-53
2022/12/10 10:28:24;;;;;;;0.28;0.28;;;17.30;58.30;;;;;;4207973;28;20117;-53
2022/12/10 10:31:18;;;;;;;0.77;0.77;;;17.30;58.00;;;;;;4191395;28;20146;-57
2022/12/10 10:34:01;;;;;;;1.30;1.30;;;17.40;57.90;;;;;;4192032;28;20075;-57
2022/12/10 10:36:42;;;;;;;0.20;0.20;;;17.40;57.90;;;;;;4192181;28;20126;-57
2022/12/10 10:39:29;;;;;;;0.22;0.22;;;17.30;58.10;;;;;;4201749;28;20197;-56
2022/12/10 10:42:11;;;;;;;0.17;0.17;;;17.20;58.40;;;;;;4209183;28;20509;-54
2022/12/10 10:44:52;;;;;;;0.60;0.60;;;17.10;58.60;;;;;;4207718;28;20073;-53
2022/12/10 10:47:36;;;;;;;0.55;0.55;;;17.10;58.70;;;;;;4208903;28;20059;-53
2022/12/10 10:50:25;;;;;;;0.08;0.08;;;17.20;58.70;;;;;;4209135;28;20051;-55
2022/12/10 10:53:25;;;;;;;0.60;0.57;;;17.30;58.60;;;;;;4208647;28;20493;-53
2022/12/10 10:56:11;;;;;;;0.05;0.05;;;17.30;58.60;;;;;;4207074;28;20050;-52
2022/12/10 10:58:57;;;;;;;1.25;1.25;;;17.30;58.40;;;;;;4204804;28;20059;-64
2022/12/10 11:01:46;;;;;;;0.43;0.32;;;17.40;58.10;;;;;;4205446;28;20063;-64
2022/12/10 11:04:31;;;;;;;0.00;0.00;;;17.50;57.90;;;;;;4206647;28;20059;-64
2022/12/10 11:07:21;;;;;;;0.30;0.30;;;17.50;57.80;;;;;;4206131;28;20054;-64
2022/12/10 11:10:03;;;;;;;0.17;0.17;;;17.50;57.60;;;;;;4205812;28;20063;-56
2022/12/10 11:12:55;;;;;;;0.90;0.90;;;17.60;57.60;;;;;;4206098;28;20062;-55
2022/12/10 11:15:39;;;;;;;0.00;0.00;;;17.60;57.50;;;;;;4206062;28;20062;-53
2022/12/10 11:18:26;;;;;;;0.00;0.00;;;17.60;57.40;;;;;;4208595;28;20181;-52
2022/12/10 11:21:17;;;;;;;0.08;0.08;;;17.60;57.50;;;;;;4208102;28;20564;-54
2022/12/10 11:23:59;;;;;;;0.40;0.40;;;17.50;57.70;;;;;;4206840;28;20149;-55
2022/12/10 11:27:03;;;;;;;0.52;0.52;;;17.50;57.80;;;;;;4207348;28;20051;-57
2022/12/10 11:29:56;;;;;;;0.05;0.05;;;17.50;57.80;;;;;;4208714;28;20491;-53
2022/12/10 11:32:54;;;;;;;1.73;1.35;;;17.60;58.00;;;;;;4208601;28;20132;-56
2022/12/10 11:35:48;;;;;;;0.47;0.47;;;17.60;58.10;;;;;;4208679;28;20631;-57
2022/12/10 11:38:33;;;;;;;2.15;2.05;;;17.60;58.20;;;;;;4218844;28;20058;-56
2022/12/10 11:41:24;;;;;;;0.20;0.20;;;17.50;58.40;;;;;;4208739;28;20054;-55
2022/12/10 11:44:17;;;;;;;0.20;0.20;;;17.40;58.60;;;;;;4208980;28;20924;-57
2022/12/10 11:47:15;;;;;;;0.32;0.32;;;17.20;58.90;;;;;;4208094;28;20055;-65
2022/12/10 11:50:09;;;;;;;2.22;1.85;;;17.00;59.30;;;;;;4208519;28;20063;-65
2022/12/10 11:53:03;;;;;;;5.18;3.97;;;16.90;59.90;;;;;;4209005;28;20109;-64
2022/12/10 11:55:54;;;;;;;1.48;1.02;;;16.80;60.20;;;;;;4208935;28;20055;-65
2022/12/10 11:58:50;;;;;;;0.30;0.30;;;16.80;60.20;;;;;;4207407;28;20145;-64
2022/12/10 12:01:44;;;;;;;1.02;0.65;;;16.80;60.30;;;;;;4207383;28;20220;-64
2022/12/10 12:04:33;;;;;;;0.03;0.03;;;16.80;60.30;;;;;;4208597;28;20055;-65
2022/12/10 12:07:34;;;;;;;0.55;0.55;;;16.70;60.40;;;;;;4208570;28;20055;-65
2022/12/10 12:10:35;;;;;;;0.20;0.20;;;16.60;60.70;;;;;;4208346;28;20177;-66
2022/12/10 12:13:38;;;;;;;3.10;1.08;;;16.50;61.10;;;;;;4207764;28;20324;-64
2022/12/10 12:16:24;;;;;;;8.98;1.00;;;16.40;61.40;;;;;;4208067;28;20070;-64
2022/12/10 12:19:12;;;;;;;1.45;0.82;;;16.40;61.30;;;;;;4207362;28;20715;-53
2022/12/10 12:21:56;;;;;;;0.15;0.15;;;16.40;61.30;;;;;;4208535;28;20186;-57
2022/12/10 12:24:41;;;;;;;0.17;0.15;;;16.40;61.30;;;;;;4208823;28;20063;-65
2022/12/10 12:27:26;;;;;;;0.35;0.10;;;16.40;61.20;;;;;;4208708;28;20054;-64
2022/12/10 12:30:15;;;;;;;1.08;1.08;;;16.40;61.20;;;;;;4207471;28;20047;-64
2022/12/10 12:33:02;;;;;;;1.35;1.35;;;16.40;61.30;;;;;;4205985;28;20514;-65
2022/12/10 12:35:47;;;;;;;0.85;0.85;;;16.40;62.20;;;;;;4207592;28;20136;-66
2022/12/10 12:38:33;;;;;;;1.85;1.45;;;16.40;61.40;;;;;;4208065;28;20399;-65
2022/12/10 12:41:17;;;;;;;0.20;0.20;;;16.50;61.40;;;;;;4208719;28;20217;-65
2022/12/10 12:44:05;;;;;;;0.10;0.10;;;16.50;60.90;;;;;;4207814;28;20534;-65
2022/12/10 12:46:48;;;;;;;0.22;0.22;;;16.50;60.70;;;;;;4208297;28;20189;-64
2022/12/10 12:49:33;;;;;;;0.60;0.60;;;16.50;60.70;;;;;;4207718;28;20082;-65
2022/12/10 12:52:26;;;;;;;0.38;0.38;;;16.50;60.60;;;;;;4207513;28;20058;-65
2022/12/10 12:55:17;;;;;;;0.00;0.00;;;16.50;60.60;;;;;;4207432;28;20051;-65
2022/12/10 12:58:12;;;;;;;2.20;2.08;;;16.50;60.80;;;;;;4197935;28;20047;-65
2022/12/10 13:00:59;;;;;;;1.77;0.63;;;16.40;60.90;;;;;;4208257;28;20605;-65
2022/12/10 13:03:44;;;;;;;0.08;0.08;;;16.40;61.30;;;;;;4207903;28;20506;-65
2022/12/10 13:06:28;;;;;;;2.47;2.38;;;16.40;61.40;;;;;;4207778;28;20055;-57
2022/12/10 13:09:26;;;;;;;0.00;0.00;;;16.40;61.30;;;;;;4206559;28;20510;-57
2022/12/10 13:12:31;;;;;;;0.90;0.90;;;16.30;61.30;;;;;;4206173;28;20054;-65
2022/12/10 13:15:19;;;;;;;0.32;0.32;;;16.40;61.60;;;;;;4207361;28;20094;-64
2022/12/10 13:18:35;;;;;;;0.20;0.20;;;16.40;61.90;;;;;;4207220;28;20572;-65
2022/12/10 13:21:32;;;;;;;0.95;0.38;;;16.40;62.20;;;;;;4207649;28;20067;-64
2022/12/10 13:24:19;;;;;;;0.03;0.03;;;16.60;63.40;;;;;;4207416;28;20128;-62
2022/12/10 13:27:05;;;;;;;0.20;0.20;;;16.70;62.60;;;;;;4207795;28;20059;-63
2022/12/10 13:29:56;;;;;;;0.90;0.90;;;16.70;62.50;;;;;;4206775;28;20054;-63
2022/12/10 13:32:46;;;;;;;0.27;0.27;;;16.70;62.20;;;;;;4206902;28;20067;-63
2022/12/10 13:35:30;;;;;;;1.25;1.25;;;16.70;62.30;;;;;;4206385;28;20513;-63
2022/12/10 13:38:22;;;;;;;0.10;0.10;;;16.60;62.50;;;;;;4206704;28;20062;-63
2022/12/10 13:44:31;;;;;;;0.28;0.28;;;16.50;62.60;;;;;;4205839;28;20054;-63
2022/12/10 13:47:27;;;;;;;0.63;0.63;;;16.60;62.40;;;;;;4206531;28;20055;-63
2022/12/10 13:50:18;;;;;;;0.85;0.85;;;16.50;62.30;;;;;;4206188;28;20048;-64
2022/12/10 13:53:04;;;;;;;0.00;0.00;;;16.50;62.50;;;;;;4206134;28;20220;-64
2022/12/10 13:55:54;;;;;;;1.33;1.23;;;16.40;63.00;;;;;;4206397;28;20050;-65
2022/12/10 13:58:46;;;;;;;0.10;0.10;;;16.40;63.10;;;;;;4206495;28;20144;-65
2022/12/10 14:01:39;;;;;;;0.38;0.38;;;16.50;63.00;;;;;;4206926;28;20054;-65
2022/12/10 14:04:45;;;;;;;0.70;0.70;;;16.60;62.70;;;;;;4205882;28;20450;-63
2022/12/10 14:07:27;;;;;;;0.73;0.73;;;16.60;62.50;;;;;;4205879;28;20067;-64
2022/12/10 14:10:15;;;;;;;3.33;1.60;;;16.60;62.50;;;;;;4206969;28;20055;-57
2022/12/10 14:12:56;;;;;;;0.60;0.60;;;16.50;62.60;;;;;;4206317;28;20066;-59
2022/12/10 14:15:38;;;;;;;2.92;0.57;;;16.50;62.80;;;;;;4206792;28;20055;-59
2022/12/10 14:18:20;;;;;;;0.20;0.20;;;16.50;62.70;;;;;;4205844;28;20178;-60
2022/12/10 14:21:06;;;;;;;0.05;0.05;;;16.50;62.50;;;;;;4206173;28;20347;-60
2022/12/10 14:23:49;;;;;;;5.93;1.20;;;16.50;62.50;;;;;;4206718;28;20072;-59
2022/12/10 14:26:37;;;;;;;0.52;0.52;;;16.50;62.50;;;;;;4206269;28;20047;-60
2022/12/10 14:29:20;;;;;;;4.55;0.73;;;16.40;62.60;;;;;;4206235;28;20144;-59
2022/12/10 14:32:07;;;;;;;0.15;0.15;;;16.30;62.80;;;;;;4206203;28;20047;-59